桃園國際機場 - 塔臺(二站)

METAR RCTP 120230Z 10013KT 9999 FEW020 26/15 Q1017 NOSIG RMK A3005=

站台狀態:Online
最後更新:2019-11-12 10:30:01